sensor_id;sensor_type;location;lat;lon;timestamp;P1;durP1;ratioP1;P2;durP2;ratioP2
52015;SDS011;38032;53.326;6.472;2023-02-28T00:00:10;9.32;;;2.50;;
52015;SDS011;38032;53.326;6.472;2023-02-28T00:02:38;5.38;;;2.60;;
52015;SDS011;38032;53.326;6.472;2023-02-28T00:05:05;10.50;;;2.70;;
52015;SDS011;38032;53.326;6.472;2023-02-28T00:07:32;9.70;;;3.00;;
52015;SDS011;38032;53.326;6.472;2023-02-28T00:09:59;6.43;;;2.70;;
52015;SDS011;38032;53.326;6.472;2023-02-28T00:12:25;6.43;;;2.60;;
52015;SDS011;38032;53.326;6.472;2023-02-28T00:14:51;8.68;;;2.60;;
52015;SDS011;38032;53.326;6.472;2023-02-28T00:17:18;8.93;;;2.90;;
52015;SDS011;38032;53.326;6.472;2023-02-28T00:19:47;7.68;;;2.67;;
52015;SDS011;38032;53.326;6.472;2023-02-28T00:22:14;7.55;;;2.75;;
52015;SDS011;38032;53.326;6.472;2023-02-28T00:24:40;7.32;;;2.78;;
52015;SDS011;38032;53.326;6.472;2023-02-28T00:27:06;5.30;;;2.55;;
52015;SDS011;38032;53.326;6.472;2023-02-28T00:29:32;7.55;;;2.53;;
52015;SDS011;38032;53.326;6.472;2023-02-28T00:31:59;5.00;;;2.25;;
52015;SDS011;38032;53.326;6.472;2023-02-28T00:34:24;6.43;;;2.60;;
52015;SDS011;38032;53.326;6.472;2023-02-28T00:36:50;6.82;;;2.22;;
52015;SDS011;38032;53.326;6.472;2023-02-28T00:39:17;6.22;;;2.22;;
52015;SDS011;38032;53.326;6.472;2023-02-28T00:41:43;9.07;;;2.10;;
52015;SDS011;38032;53.326;6.472;2023-02-28T00:44:09;7.03;;;2.10;;
52015;SDS011;38032;53.326;6.472;2023-02-28T00:46:34;10.23;;;2.38;;
52015;SDS011;38032;53.326;6.472;2023-02-28T00:49:01;7.00;;;2.03;;
52015;SDS011;38032;53.326;6.472;2023-02-28T00:51:26;7.88;;;2.15;;
52015;SDS011;38032;53.326;6.472;2023-02-28T00:53:52;5.72;;;2.10;;
52015;SDS011;38032;53.326;6.472;2023-02-28T00:56:19;5.30;;;1.90;;
52015;SDS011;38032;53.326;6.472;2023-02-28T00:58:45;7.35;;;1.98;;
52015;SDS011;38032;53.326;6.472;2023-02-28T01:01:11;7.65;;;2.15;;
52015;SDS011;38032;53.326;6.472;2023-02-28T01:03:37;4.60;;;1.88;;
52015;SDS011;38032;53.326;6.472;2023-02-28T01:06:04;8.15;;;2.55;;
52015;SDS011;38032;53.326;6.472;2023-02-28T01:08:30;6.88;;;2.03;;
52015;SDS011;38032;53.326;6.472;2023-02-28T01:10:56;6.65;;;2.30;;
52015;SDS011;38032;53.326;6.472;2023-02-28T01:13:22;5.72;;;2.00;;
52015;SDS011;38032;53.326;6.472;2023-02-28T01:15:51;5.95;;;2.10;;
52015;SDS011;38032;53.326;6.472;2023-02-28T01:18:20;7.68;;;2.28;;
52015;SDS011;38032;53.326;6.472;2023-02-28T01:20:46;5.15;;;1.90;;
52015;SDS011;38032;53.326;6.472;2023-02-28T01:23:12;6.47;;;2.00;;
52015;SDS011;38032;53.326;6.472;2023-02-28T01:25:39;7.20;;;2.03;;
52015;SDS011;38032;53.326;6.472;2023-02-28T01:28:05;5.43;;;2.00;;
52015;SDS011;38032;53.326;6.472;2023-02-28T01:30:31;5.97;;;2.15;;
52015;SDS011;38032;53.326;6.472;2023-02-28T01:32:58;7.05;;;1.98;;
52015;SDS011;38032;53.326;6.472;2023-02-28T01:35:24;4.45;;;1.92;;
52015;SDS011;38032;53.326;6.472;2023-02-28T01:37:50;8.07;;;2.33;;
52015;SDS011;38032;53.326;6.472;2023-02-28T01:40:16;6.90;;;2.38;;
52015;SDS011;38032;53.326;6.472;2023-02-28T01:42:42;7.15;;;2.10;;
52015;SDS011;38032;53.326;6.472;2023-02-28T01:45:26;5.97;;;1.88;;
52015;SDS011;38032;53.326;6.472;2023-02-28T01:47:55;7.50;;;2.17;;
52015;SDS011;38032;53.326;6.472;2023-02-28T01:50:26;6.43;;;2.05;;
52015;SDS011;38032;53.326;6.472;2023-02-28T01:52:55;10.77;;;2.47;;
52015;SDS011;38032;53.326;6.472;2023-02-28T01:55:25;10.23;;;1.98;;
52015;SDS011;38032;53.326;6.472;2023-02-28T01:57:54;8.73;;;2.40;;
52015;SDS011;38032;53.326;6.472;2023-02-28T02:00:24;12.95;;;2.53;;
52015;SDS011;38032;53.326;6.472;2023-02-28T02:02:54;4.95;;;1.88;;
52015;SDS011;38032;53.326;6.472;2023-02-28T02:05:27;5.28;;;1.75;;
52015;SDS011;38032;53.326;6.472;2023-02-28T02:07:57;6.13;;;1.92;;
52015;SDS011;38032;53.326;6.472;2023-02-28T02:10:32;6.07;;;2.00;;
52015;SDS011;38032;53.326;6.472;2023-02-28T02:13:05;9.70;;;2.47;;
52015;SDS011;38032;53.326;6.472;2023-02-28T02:29:02;8.02;;;2.08;;
52015;SDS011;38032;53.326;6.472;2023-02-28T02:34:34;6.00;;;1.80;;
52015;SDS011;38032;53.326;6.472;2023-02-28T02:39:48;5.20;;;1.83;;
52015;SDS011;38032;53.326;6.472;2023-02-28T02:42:16;6.38;;;1.80;;
52015;SDS011;38032;53.326;6.472;2023-02-28T02:44:57;4.60;;;1.83;;
52015;SDS011;38032;53.326;6.472;2023-02-28T02:47:27;5.85;;;1.98;;
52015;SDS011;38032;53.326;6.472;2023-02-28T02:49:56;4.88;;;1.95;;
52015;SDS011;38032;53.326;6.472;2023-02-28T02:52:27;4.18;;;1.88;;
52015;SDS011;38032;53.326;6.472;2023-02-28T02:54:59;7.03;;;2.10;;
52015;SDS011;38032;53.326;6.472;2023-02-28T02:57:36;6.35;;;2.17;;
52015;SDS011;38032;53.326;6.472;2023-02-28T03:03:30;3.90;;;1.70;;
52015;SDS011;38032;53.326;6.472;2023-02-28T03:05:59;5.93;;;2.15;;
52015;SDS011;38032;53.326;6.472;2023-02-28T03:08:27;5.43;;;1.88;;
52015;SDS011;38032;53.326;6.472;2023-02-28T03:10:57;6.97;;;1.80;;
52015;SDS011;38032;53.326;6.472;2023-02-28T03:13:34;4.82;;;2.05;;
52015;SDS011;38032;53.326;6.472;2023-02-28T03:24:28;7.55;;;2.30;;
52015;SDS011;38032;53.326;6.472;2023-02-28T03:27:00;5.65;;;2.20;;
52015;SDS011;38032;53.326;6.472;2023-02-28T03:29:35;6.47;;;2.10;;
52015;SDS011;38032;53.326;6.472;2023-02-28T03:32:12;6.65;;;2.10;;
52015;SDS011;38032;53.326;6.472;2023-02-28T03:34:49;8.02;;;2.20;;
52015;SDS011;38032;53.326;6.472;2023-02-28T03:37:24;10.13;;;2.58;;
52015;SDS011;38032;53.326;6.472;2023-02-28T03:39:54;7.15;;;2.60;;
52015;SDS011;38032;53.326;6.472;2023-02-28T03:42:25;6.38;;;2.13;;
52015;SDS011;38032;53.326;6.472;2023-02-28T03:44:57;5.32;;;2.10;;
52015;SDS011;38032;53.326;6.472;2023-02-28T03:47:28;6.85;;;2.40;;
52015;SDS011;38032;53.326;6.472;2023-02-28T03:49:59;5.50;;;2.20;;
52015;SDS011;38032;53.326;6.472;2023-02-28T03:52:34;6.47;;;2.30;;
52015;SDS011;38032;53.326;6.472;2023-02-28T03:55:06;6.00;;;2.42;;
52015;SDS011;38032;53.326;6.472;2023-02-28T04:00:29;5.35;;;1.92;;
52015;SDS011;38032;53.326;6.472;2023-02-28T04:02:58;5.82;;;2.10;;
52015;SDS011;38032;53.326;6.472;2023-02-28T04:05:24;6.63;;;2.22;;
52015;SDS011;38032;53.326;6.472;2023-02-28T04:07:51;6.55;;;2.20;;
52015;SDS011;38032;53.326;6.472;2023-02-28T04:10:19;4.82;;;2.10;;
52015;SDS011;38032;53.326;6.472;2023-02-28T04:12:45;6.03;;;2.05;;
52015;SDS011;38032;53.326;6.472;2023-02-28T04:15:11;5.93;;;2.00;;
52015;SDS011;38032;53.326;6.472;2023-02-28T04:17:36;4.65;;;2.30;;
52015;SDS011;38032;53.326;6.472;2023-02-28T04:20:03;5.53;;;2.10;;
52015;SDS011;38032;53.326;6.472;2023-02-28T04:22:34;6.65;;;2.00;;
52015;SDS011;38032;53.326;6.472;2023-02-28T04:25:00;8.25;;;2.60;;
52015;SDS011;38032;53.326;6.472;2023-02-28T04:27:26;3.75;;;2.28;;
52015;SDS011;38032;53.326;6.472;2023-02-28T04:29:52;8.63;;;2.10;;
52015;SDS011;38032;53.326;6.472;2023-02-28T04:32:18;4.32;;;1.80;;
52015;SDS011;38032;53.326;6.472;2023-02-28T04:34:44;7.00;;;2.08;;
52015;SDS011;38032;53.326;6.472;2023-02-28T04:37:10;6.50;;;2.58;;
52015;SDS011;38032;53.326;6.472;2023-02-28T04:39:36;5.15;;;2.10;;
52015;SDS011;38032;53.326;6.472;2023-02-28T04:42:03;8.20;;;2.20;;
52015;SDS011;38032;53.326;6.472;2023-02-28T04:44:29;7.35;;;2.20;;
52015;SDS011;38032;53.326;6.472;2023-02-28T04:46:55;4.80;;;2.10;;
52015;SDS011;38032;53.326;6.472;2023-02-28T04:49:21;9.65;;;5.78;;
52015;SDS011;38032;53.326;6.472;2023-02-28T04:51:47;9.93;;;6.70;;
52015;SDS011;38032;53.326;6.472;2023-02-28T04:54:15;11.30;;;7.00;;
52015;SDS011;38032;53.326;6.472;2023-02-28T04:56:41;10.95;;;6.97;;
52015;SDS011;38032;53.326;6.472;2023-02-28T04:59:07;10.70;;;6.70;;
52015;SDS011;38032;53.326;6.472;2023-02-28T05:01:33;9.75;;;6.68;;
52015;SDS011;38032;53.326;6.472;2023-02-28T05:04:02;11.45;;;6.65;;
52015;SDS011;38032;53.326;6.472;2023-02-28T05:06:29;8.73;;;6.93;;
52015;SDS011;38032;53.326;6.472;2023-02-28T05:08:56;9.10;;;6.50;;
52015;SDS011;38032;53.326;6.472;2023-02-28T05:11:24;8.50;;;6.55;;
52015;SDS011;38032;53.326;6.472;2023-02-28T05:13:51;8.73;;;6.55;;
52015;SDS011;38032;53.326;6.472;2023-02-28T05:16:18;10.63;;;6.53;;
52015;SDS011;38032;53.326;6.472;2023-02-28T05:18:45;8.73;;;6.20;;
52015;SDS011;38032;53.326;6.472;2023-02-28T05:21:22;8.80;;;6.50;;
52015;SDS011;38032;53.326;6.472;2023-02-28T05:23:53;8.75;;;6.32;;
52015;SDS011;38032;53.326;6.472;2023-02-28T05:26:20;8.57;;;6.72;;
52015;SDS011;38032;53.326;6.472;2023-02-28T05:28:46;9.90;;;6.80;;
52015;SDS011;38032;53.326;6.472;2023-02-28T05:31:12;9.02;;;6.75;;
52015;SDS011;38032;53.326;6.472;2023-02-28T05:33:39;9.73;;;6.78;;
52015;SDS011;38032;53.326;6.472;2023-02-28T05:36:05;10.23;;;7.00;;
52015;SDS011;38032;53.326;6.472;2023-02-28T05:38:31;8.52;;;6.60;;
52015;SDS011;38032;53.326;6.472;2023-02-28T05:40:57;8.63;;;6.85;;
52015;SDS011;38032;53.326;6.472;2023-02-28T05:43:23;8.55;;;6.60;;
52015;SDS011;38032;53.326;6.472;2023-02-28T05:45:49;9.23;;;5.57;;
52015;SDS011;38032;53.326;6.472;2023-02-28T05:48:15;8.27;;;5.72;;
52015;SDS011;38032;53.326;6.472;2023-02-28T05:50:42;7.43;;;5.38;;
52015;SDS011;38032;53.326;6.472;2023-02-28T05:53:11;7.10;;;5.07;;
52015;SDS011;38032;53.326;6.472;2023-02-28T05:55:37;7.18;;;4.72;;
52015;SDS011;38032;53.326;6.472;2023-02-28T05:58:03;7.43;;;5.45;;
52015;SDS011;38032;53.326;6.472;2023-02-28T06:00:29;6.47;;;4.82;;
52015;SDS011;38032;53.326;6.472;2023-02-28T06:02:55;8.07;;;5.07;;
52015;SDS011;38032;53.326;6.472;2023-02-28T06:05:25;6.93;;;4.97;;
52015;SDS011;38032;53.326;6.472;2023-02-28T06:07:50;7.90;;;5.32;;
52015;SDS011;38032;53.326;6.472;2023-02-28T06:10:17;7.30;;;5.30;;
52015;SDS011;38032;53.326;6.472;2023-02-28T06:12:43;9.05;;;6.03;;
52015;SDS011;38032;53.326;6.472;2023-02-28T06:15:15;7.65;;;5.22;;
52015;SDS011;38032;53.326;6.472;2023-02-28T06:17:42;8.85;;;5.88;;
52015;SDS011;38032;53.326;6.472;2023-02-28T06:20:09;12.07;;;6.35;;
52015;SDS011;38032;53.326;6.472;2023-02-28T06:22:38;7.65;;;5.25;;
52015;SDS011;38032;53.326;6.472;2023-02-28T06:25:05;9.23;;;5.88;;
52015;SDS011;38032;53.326;6.472;2023-02-28T06:27:32;8.05;;;5.28;;
52015;SDS011;38032;53.326;6.472;2023-02-28T06:29:58;9.45;;;6.40;;
52015;SDS011;38032;53.326;6.472;2023-02-28T06:32:24;8.93;;;6.10;;
52015;SDS011;38032;53.326;6.472;2023-02-28T06:34:50;8.75;;;6.38;;
52015;SDS011;38032;53.326;6.472;2023-02-28T06:37:17;9.57;;;6.47;;
52015;SDS011;38032;53.326;6.472;2023-02-28T06:39:43;8.77;;;6.28;;
52015;SDS011;38032;53.326;6.472;2023-02-28T06:42:09;11.75;;;6.85;;
52015;SDS011;38032;53.326;6.472;2023-02-28T06:44:35;9.50;;;6.70;;
52015;SDS011;38032;53.326;6.472;2023-02-28T06:47:02;9.98;;;7.18;;
52015;SDS011;38032;53.326;6.472;2023-02-28T06:49:30;10.10;;;7.20;;
52015;SDS011;38032;53.326;6.472;2023-02-28T06:51:57;11.70;;;7.15;;
52015;SDS011;38032;53.326;6.472;2023-02-28T06:54:23;10.95;;;6.50;;
52015;SDS011;38032;53.326;6.472;2023-02-28T06:56:49;11.18;;;7.70;;
52015;SDS011;38032;53.326;6.472;2023-02-28T06:59:16;9.07;;;6.10;;
52015;SDS011;38032;53.326;6.472;2023-02-28T07:01:42;11.32;;;7.45;;
52015;SDS011;38032;53.326;6.472;2023-02-28T07:04:08;10.77;;;7.53;;
52015;SDS011;38032;53.326;6.472;2023-02-28T07:06:34;11.38;;;7.18;;
52015;SDS011;38032;53.326;6.472;2023-02-28T07:09:00;8.50;;;6.05;;
52015;SDS011;38032;53.326;6.472;2023-02-28T07:11:27;10.38;;;6.97;;
52015;SDS011;38032;53.326;6.472;2023-02-28T07:13:53;11.50;;;7.90;;
52015;SDS011;38032;53.326;6.472;2023-02-28T07:16:20;9.98;;;6.35;;
52015;SDS011;38032;53.326;6.472;2023-02-28T07:18:47;13.18;;;8.45;;
52015;SDS011;38032;53.326;6.472;2023-02-28T07:21:13;12.10;;;7.68;;
52015;SDS011;38032;53.326;6.472;2023-02-28T07:23:40;11.25;;;7.90;;
52015;SDS011;38032;53.326;6.472;2023-02-28T07:26:07;10.38;;;7.15;;
52015;SDS011;38032;53.326;6.472;2023-02-28T07:28:40;10.55;;;7.15;;
52015;SDS011;38032;53.326;6.472;2023-02-28T07:31:07;11.65;;;7.60;;
52015;SDS011;38032;53.326;6.472;2023-02-28T07:33:34;12.07;;;8.60;;
52015;SDS011;38032;53.326;6.472;2023-02-28T07:36:02;13.25;;;8.48;;
52015;SDS011;38032;53.326;6.472;2023-02-28T07:38:29;12.25;;;8.82;;
52015;SDS011;38032;53.326;6.472;2023-02-28T07:40:55;13.32;;;8.15;;
52015;SDS011;38032;53.326;6.472;2023-02-28T07:43:21;11.80;;;7.40;;
52015;SDS011;38032;53.326;6.472;2023-02-28T07:45:47;12.85;;;8.23;;
52015;SDS011;38032;53.326;6.472;2023-02-28T07:48:13;14.80;;;9.80;;
52015;SDS011;38032;53.326;6.472;2023-02-28T07:50:39;13.10;;;8.90;;
52015;SDS011;38032;53.326;6.472;2023-02-28T07:53:05;14.85;;;9.05;;
52015;SDS011;38032;53.326;6.472;2023-02-28T07:55:31;14.80;;;9.13;;
52015;SDS011;38032;53.326;6.472;2023-02-28T07:57:57;14.85;;;9.73;;
52015;SDS011;38032;53.326;6.472;2023-02-28T08:00:23;15.57;;;9.43;;
52015;SDS011;38032;53.326;6.472;2023-02-28T08:02:49;13.05;;;9.20;;
52015;SDS011;38032;53.326;6.472;2023-02-28T08:05:16;15.75;;;9.48;;
52015;SDS011;38032;53.326;6.472;2023-02-28T08:07:42;15.75;;;9.15;;
52015;SDS011;38032;53.326;6.472;2023-02-28T08:10:08;17.80;;;10.23;;
52015;SDS011;38032;53.326;6.472;2023-02-28T08:12:35;12.38;;;8.52;;
52015;SDS011;38032;53.326;6.472;2023-02-28T08:15:01;14.10;;;8.05;;
52015;SDS011;38032;53.326;6.472;2023-02-28T08:17:27;12.82;;;8.90;;
52015;SDS011;38032;53.326;6.472;2023-02-28T08:19:53;12.43;;;8.55;;
52015;SDS011;38032;53.326;6.472;2023-02-28T08:22:19;11.27;;;7.35;;
52015;SDS011;38032;53.326;6.472;2023-02-28T08:24:45;11.93;;;7.90;;
52015;SDS011;38032;53.326;6.472;2023-02-28T08:27:11;15.35;;;8.35;;
52015;SDS011;38032;53.326;6.472;2023-02-28T08:29:38;11.90;;;7.88;;
52015;SDS011;38032;53.326;6.472;2023-02-28T08:32:04;9.63;;;6.57;;
52015;SDS011;38032;53.326;6.472;2023-02-28T08:34:31;11.23;;;7.28;;
52015;SDS011;38032;53.326;6.472;2023-02-28T08:36:57;11.25;;;7.30;;
52015;SDS011;38032;53.326;6.472;2023-02-28T08:39:23;11.25;;;8.00;;
52015;SDS011;38032;53.326;6.472;2023-02-28T08:41:49;12.52;;;7.47;;
52015;SDS011;38032;53.326;6.472;2023-02-28T08:44:15;13.05;;;8.20;;
52015;SDS011;38032;53.326;6.472;2023-02-28T08:46:41;12.43;;;8.23;;
52015;SDS011;38032;53.326;6.472;2023-02-28T08:49:09;12.63;;;7.43;;
52015;SDS011;38032;53.326;6.472;2023-02-28T08:51:36;11.95;;;8.65;;
52015;SDS011;38032;53.326;6.472;2023-02-28T08:54:03;11.10;;;7.85;;
52015;SDS011;38032;53.326;6.472;2023-02-28T08:56:30;11.93;;;7.90;;
52015;SDS011;38032;53.326;6.472;2023-02-28T08:58:56;11.05;;;7.40;;
52015;SDS011;38032;53.326;6.472;2023-02-28T09:01:24;12.05;;;7.57;;
52015;SDS011;38032;53.326;6.472;2023-02-28T09:03:53;10.65;;;7.45;;
52015;SDS011;38032;53.326;6.472;2023-02-28T09:06:21;10.85;;;8.05;;
52015;SDS011;38032;53.326;6.472;2023-02-28T09:08:49;10.63;;;7.72;;
52015;SDS011;38032;53.326;6.472;2023-02-28T09:11:15;10.52;;;7.50;;
52015;SDS011;38032;53.326;6.472;2023-02-28T09:13:41;10.23;;;7.30;;
52015;SDS011;38032;53.326;6.472;2023-02-28T09:16:09;8.90;;;6.65;;
52015;SDS011;38032;53.326;6.472;2023-02-28T09:18:37;12.43;;;8.73;;
52015;SDS011;38032;53.326;6.472;2023-02-28T09:21:04;9.18;;;6.15;;
52015;SDS011;38032;53.326;6.472;2023-02-28T09:23:32;11.63;;;6.80;;
52015;SDS011;38032;53.326;6.472;2023-02-28T09:25:58;9.02;;;6.50;;
52015;SDS011;38032;53.326;6.472;2023-02-28T09:28:24;8.63;;;5.90;;
52015;SDS011;38032;53.326;6.472;2023-02-28T09:30:51;9.30;;;5.70;;
52015;SDS011;38032;53.326;6.472;2023-02-28T09:33:19;7.72;;;6.03;;
52015;SDS011;38032;53.326;6.472;2023-02-28T09:35:47;8.93;;;6.15;;
52015;SDS011;38032;53.326;6.472;2023-02-28T09:38:13;9.98;;;6.20;;
52015;SDS011;38032;53.326;6.472;2023-02-28T09:40:44;10.45;;;6.20;;
52015;SDS011;38032;53.326;6.472;2023-02-28T09:43:15;6.88;;;5.45;;
52015;SDS011;38032;53.326;6.472;2023-02-28T09:45:43;8.50;;;6.07;;
52015;SDS011;38032;53.326;6.472;2023-02-28T09:48:19;7.32;;;4.40;;
52015;SDS011;38032;53.326;6.472;2023-02-28T09:50:50;6.50;;;4.30;;
52015;SDS011;38032;53.326;6.472;2023-02-28T09:53:26;9.50;;;4.97;;
52015;SDS011;38032;53.326;6.472;2023-02-28T09:56:02;6.43;;;4.55;;
52015;SDS011;38032;53.326;6.472;2023-02-28T09:58:44;5.95;;;4.60;;
52015;SDS011;38032;53.326;6.472;2023-02-28T10:07:10;6.35;;;5.40;;
52015;SDS011;38032;53.326;6.472;2023-02-28T10:09:45;6.90;;;4.57;;
52015;SDS011;38032;53.326;6.472;2023-02-28T10:12:13;6.05;;;5.05;;
52015;SDS011;38032;53.326;6.472;2023-02-28T10:14:45;7.25;;;5.20;;
52015;SDS011;38032;53.326;6.472;2023-02-28T10:17:16;6.90;;;5.28;;
52015;SDS011;38032;53.326;6.472;2023-02-28T10:19:56;8.20;;;4.93;;
52015;SDS011;38032;53.326;6.472;2023-02-28T10:22:36;7.50;;;4.68;;
52015;SDS011;38032;53.326;6.472;2023-02-28T10:25:20;7.50;;;5.28;;
52015;SDS011;38032;53.326;6.472;2023-02-28T10:27:49;5.78;;;4.40;;
52015;SDS011;38032;53.326;6.472;2023-02-28T10:30:18;6.30;;;4.82;;
52015;SDS011;38032;53.326;6.472;2023-02-28T10:32:47;7.50;;;5.03;;
52015;SDS011;38032;53.326;6.472;2023-02-28T10:35:18;7.88;;;5.40;;
52015;SDS011;38032;53.326;6.472;2023-02-28T10:37:47;7.28;;;5.45;;
52015;SDS011;38032;53.326;6.472;2023-02-28T10:42:41;6.18;;;4.57;;
52015;SDS011;38032;53.326;6.472;2023-02-28T10:45:19;6.75;;;5.15;;
52015;SDS011;38032;53.326;6.472;2023-02-28T10:47:51;6.30;;;5.22;;
52015;SDS011;38032;53.326;6.472;2023-02-28T10:50:32;5.85;;;4.53;;
52015;SDS011;38032;53.326;6.472;2023-02-28T10:58:30;6.43;;;5.07;;
52015;SDS011;38032;53.326;6.472;2023-02-28T11:01:16;9.98;;;5.72;;
52015;SDS011;38032;53.326;6.472;2023-02-28T11:03:44;6.60;;;5.35;;
52015;SDS011;38032;53.326;6.472;2023-02-28T11:06:16;6.60;;;4.72;;
52015;SDS011;38032;53.326;6.472;2023-02-28T11:08:44;6.45;;;4.93;;
52015;SDS011;38032;53.326;6.472;2023-02-28T11:11:12;7.07;;;5.18;;
52015;SDS011;38032;53.326;6.472;2023-02-28T11:13:39;6.97;;;4.57;;
52015;SDS011;38032;53.326;6.472;2023-02-28T11:16:07;5.45;;;3.67;;
52015;SDS011;38032;53.326;6.472;2023-02-28T11:18:50;4.50;;;3.70;;
52015;SDS011;38032;53.326;6.472;2023-02-28T11:21:45;6.20;;;4.05;;
52015;SDS011;38032;53.326;6.472;2023-02-28T11:24:28;6.45;;;3.95;;
52015;SDS011;38032;53.326;6.472;2023-02-28T11:26:59;6.95;;;4.40;;
52015;SDS011;38032;53.326;6.472;2023-02-28T11:29:26;6.47;;;4.70;;
52015;SDS011;38032;53.326;6.472;2023-02-28T11:34:29;6.97;;;4.47;;
52015;SDS011;38032;53.326;6.472;2023-02-28T11:36:57;5.13;;;4.43;;
52015;SDS011;38032;53.326;6.472;2023-02-28T11:39:24;6.22;;;4.65;;
52015;SDS011;38032;53.326;6.472;2023-02-28T11:44:20;6.40;;;4.90;;
52015;SDS011;38032;53.326;6.472;2023-02-28T11:46:50;7.32;;;5.32;;
52015;SDS011;38032;53.326;6.472;2023-02-28T11:51:58;6.45;;;4.78;;
52015;SDS011;38032;53.326;6.472;2023-02-28T12:02:45;7.97;;;4.82;;
52015;SDS011;38032;53.326;6.472;2023-02-28T12:08:07;6.88;;;4.90;;
52015;SDS011;38032;53.326;6.472;2023-02-28T12:10:44;7.35;;;5.28;;
52015;SDS011;38032;53.326;6.472;2023-02-28T12:16:08;6.38;;;4.85;;
52015;SDS011;38032;53.326;6.472;2023-02-28T12:21:41;9.82;;;5.80;;
52015;SDS011;38032;53.326;6.472;2023-02-28T12:26:56;7.40;;;5.10;;
52015;SDS011;38032;53.326;6.472;2023-02-28T12:29:26;8.05;;;5.82;;
52015;SDS011;38032;53.326;6.472;2023-02-28T12:31:58;7.43;;;5.80;;
52015;SDS011;38032;53.326;6.472;2023-02-28T12:34:32;8.02;;;6.05;;
52015;SDS011;38032;53.326;6.472;2023-02-28T12:37:04;8.60;;;5.65;;
52015;SDS011;38032;53.326;6.472;2023-02-28T12:39:36;7.32;;;5.88;;
52015;SDS011;38032;53.326;6.472;2023-02-28T12:42:10;8.02;;;6.13;;
52015;SDS011;38032;53.326;6.472;2023-02-28T12:44:40;6.80;;;5.60;;
52015;SDS011;38032;53.326;6.472;2023-02-28T12:47:14;9.65;;;6.40;;
52015;SDS011;38032;53.326;6.472;2023-02-28T12:52:13;9.35;;;6.10;;
52015;SDS011;38032;53.326;6.472;2023-02-28T12:54:49;8.52;;;6.20;;
52015;SDS011;38032;53.326;6.472;2023-02-28T12:59:55;7.85;;;5.75;;
52015;SDS011;38032;53.326;6.472;2023-02-28T13:02:33;8.90;;;5.97;;
52015;SDS011;38032;53.326;6.472;2023-02-28T13:08:20;8.77;;;5.80;;
52015;SDS011;38032;53.326;6.472;2023-02-28T13:10:55;7.78;;;5.32;;
52015;SDS011;38032;53.326;6.472;2023-02-28T13:13:24;7.85;;;6.00;;
52015;SDS011;38032;53.326;6.472;2023-02-28T13:16:06;7.40;;;5.97;;
52015;SDS011;38032;53.326;6.472;2023-02-28T13:18:38;8.55;;;5.55;;
52015;SDS011;38032;53.326;6.472;2023-02-28T13:21:09;10.20;;;6.07;;
52015;SDS011;38032;53.326;6.472;2023-02-28T13:26:22;9.38;;;5.75;;
52015;SDS011;38032;53.326;6.472;2023-02-28T13:32:18;9.52;;;6.15;;
52015;SDS011;38032;53.326;6.472;2023-02-28T13:34:34;8.90;;;6.10;;
52015;SDS011;38032;53.326;6.472;2023-02-28T13:37:34;8.25;;;6.00;;
52015;SDS011;38032;53.326;6.472;2023-02-28T13:42:36;7.72;;;5.72;;
52015;SDS011;38032;53.326;6.472;2023-02-28T13:45:21;7.85;;;5.80;;
52015;SDS011;38032;53.326;6.472;2023-02-28T13:53:02;7.90;;;6.00;;
52015;SDS011;38032;53.326;6.472;2023-02-28T13:55:44;8.55;;;5.38;;
52015;SDS011;38032;53.326;6.472;2023-02-28T14:06:29;7.93;;;5.63;;
52015;SDS011;38032;53.326;6.472;2023-02-28T14:11:43;7.78;;;5.57;;
52015;SDS011;38032;53.326;6.472;2023-02-28T14:16:59;8.20;;;5.68;;
52015;SDS011;38032;53.326;6.472;2023-02-28T14:19:29;8.20;;;5.55;;
52015;SDS011;38032;53.326;6.472;2023-02-28T14:27:11;8.13;;;6.60;;
52015;SDS011;38032;53.326;6.472;2023-02-28T14:37:25;9.13;;;6.88;;
52015;SDS011;38032;53.326;6.472;2023-02-28T14:39:55;9.55;;;7.05;;
52015;SDS011;38032;53.326;6.472;2023-02-28T14:42:30;9.10;;;7.30;;
52015;SDS011;38032;53.326;6.472;2023-02-28T14:44:58;9.48;;;6.80;;
52015;SDS011;38032;53.326;6.472;2023-02-28T14:47:27;8.18;;;6.57;;
52015;SDS011;38032;53.326;6.472;2023-02-28T14:49:55;12.15;;;7.43;;
52015;SDS011;38032;53.326;6.472;2023-02-28T14:52:23;10.57;;;7.60;;
52015;SDS011;38032;53.326;6.472;2023-02-28T14:54:55;8.80;;;6.82;;
52015;SDS011;38032;53.326;6.472;2023-02-28T14:57:25;12.48;;;7.68;;
52015;SDS011;38032;53.326;6.472;2023-02-28T14:59:57;9.57;;;6.90;;
52015;SDS011;38032;53.326;6.472;2023-02-28T15:02:25;10.85;;;7.40;;
52015;SDS011;38032;53.326;6.472;2023-02-28T15:04:59;10.68;;;7.20;;
52015;SDS011;38032;53.326;6.472;2023-02-28T15:07:41;10.55;;;7.30;;
52015;SDS011;38032;53.326;6.472;2023-02-28T15:10:10;10.73;;;7.28;;
52015;SDS011;38032;53.326;6.472;2023-02-28T15:12:41;10.90;;;7.15;;
52015;SDS011;38032;53.326;6.472;2023-02-28T15:15:18;9.70;;;6.55;;
52015;SDS011;38032;53.326;6.472;2023-02-28T15:17:48;9.45;;;6.93;;
52015;SDS011;38032;53.326;6.472;2023-02-28T15:20:18;8.50;;;6.60;;
52015;SDS011;38032;53.326;6.472;2023-02-28T15:22:45;9.23;;;6.93;;
52015;SDS011;38032;53.326;6.472;2023-02-28T15:25:15;8.98;;;7.10;;
52015;SDS011;38032;53.326;6.472;2023-02-28T15:27:46;9.73;;;6.88;;
52015;SDS011;38032;53.326;6.472;2023-02-28T15:30:17;8.13;;;6.70;;
52015;SDS011;38032;53.326;6.472;2023-02-28T15:33:01;9.57;;;7.00;;
52015;SDS011;38032;53.326;6.472;2023-02-28T15:35:31;9.68;;;7.15;;
52015;SDS011;38032;53.326;6.472;2023-02-28T15:38:02;9.73;;;7.40;;
52015;SDS011;38032;53.326;6.472;2023-02-28T15:40:43;11.82;;;7.32;;
52015;SDS011;38032;53.326;6.472;2023-02-28T15:43:15;9.18;;;7.30;;
52015;SDS011;38032;53.326;6.472;2023-02-28T15:45:45;9.57;;;6.82;;
52015;SDS011;38032;53.326;6.472;2023-02-28T15:48:16;9.90;;;7.20;;
52015;SDS011;38032;53.326;6.472;2023-02-28T15:50:47;11.80;;;7.45;;
52015;SDS011;38032;53.326;6.472;2023-02-28T15:53:19;9.80;;;7.22;;
52015;SDS011;38032;53.326;6.472;2023-02-28T15:55:55;9.93;;;7.15;;
52015;SDS011;38032;53.326;6.472;2023-02-28T15:58:25;14.90;;;7.95;;
52015;SDS011;38032;53.326;6.472;2023-02-28T16:01:04;9.85;;;7.75;;
52015;SDS011;38032;53.326;6.472;2023-02-28T16:03:37;11.88;;;7.82;;
52015;SDS011;38032;53.326;6.472;2023-02-28T16:06:21;12.32;;;8.10;;
52015;SDS011;38032;53.326;6.472;2023-02-28T16:08:55;12.23;;;8.18;;
52015;SDS011;38032;53.326;6.472;2023-02-28T16:11:21;10.93;;;7.32;;
52015;SDS011;38032;53.326;6.472;2023-02-28T16:13:47;10.80;;;7.68;;
52015;SDS011;38032;53.326;6.472;2023-02-28T16:16:16;11.65;;;7.30;;
52015;SDS011;38032;53.326;6.472;2023-02-28T16:18:44;10.68;;;7.90;;
52015;SDS011;38032;53.326;6.472;2023-02-28T16:21:10;12.95;;;8.18;;
52015;SDS011;38032;53.326;6.472;2023-02-28T16:23:36;13.55;;;8.55;;
52015;SDS011;38032;53.326;6.472;2023-02-28T16:26:03;11.40;;;7.93;;
52015;SDS011;38032;53.326;6.472;2023-02-28T16:28:31;11.70;;;8.50;;
52015;SDS011;38032;53.326;6.472;2023-02-28T16:31:00;11.68;;;8.15;;
52015;SDS011;38032;53.326;6.472;2023-02-28T16:33:28;12.35;;;8.05;;
52015;SDS011;38032;53.326;6.472;2023-02-28T16:35:54;10.98;;;7.38;;
52015;SDS011;38032;53.326;6.472;2023-02-28T16:38:20;10.32;;;6.78;;
52015;SDS011;38032;53.326;6.472;2023-02-28T16:40:49;11.60;;;7.85;;
52015;SDS011;38032;53.326;6.472;2023-02-28T16:43:17;12.10;;;7.72;;
52015;SDS011;38032;53.326;6.472;2023-02-28T16:45:46;11.93;;;7.65;;
52015;SDS011;38032;53.326;6.472;2023-02-28T16:48:13;9.00;;;6.82;;
52015;SDS011;38032;53.326;6.472;2023-02-28T16:50:40;10.65;;;7.43;;
52015;SDS011;38032;53.326;6.472;2023-02-28T16:53:07;10.50;;;7.85;;
52015;SDS011;38032;53.326;6.472;2023-02-28T16:55:34;11.45;;;7.53;;
52015;SDS011;38032;53.326;6.472;2023-02-28T16:58:00;11.32;;;7.00;;